createdAt,value
2019-04-30T00:02:19.286Z,52.33
2019-04-30T00:05:25.644Z,51.47
2019-04-30T00:08:35.490Z,51.90
2019-04-30T00:11:41.256Z,53.20
2019-04-30T00:14:47.846Z,54.39
2019-04-30T00:17:58.508Z,55.83
2019-04-30T00:21:05.452Z,53.20
2019-04-30T00:24:13.272Z,53.75
2019-04-30T00:27:21.106Z,53.30
2019-04-30T00:30:28.113Z,53.84
2019-04-30T00:33:35.366Z,53.64
2019-04-30T00:36:42.265Z,51.54
2019-04-30T00:39:50.827Z,52.42
2019-04-30T00:43:00.218Z,52.33
2019-04-30T00:46:05.155Z,53.58
2019-04-30T00:49:16.183Z,53.84
2019-04-30T00:52:19.835Z,52.78
2019-04-30T00:55:26.306Z,51.49
2019-04-30T00:58:32.701Z,50.35
2019-04-30T01:02:06.053Z,49.92
2019-04-30T01:05:16.359Z,50.74
2019-04-30T01:08:25.345Z,49.73
2019-04-30T01:11:30.887Z,52.10
2019-04-30T01:14:38.610Z,51.98
2019-04-30T01:17:50.998Z,52.34
2019-04-30T01:20:54.790Z,50.72
2019-04-30T01:24:01.276Z,51.18
2019-04-30T01:27:10.463Z,51.56
2019-04-30T01:30:21.085Z,49.69
2019-04-30T01:33:28.386Z,49.01
2019-04-30T01:36:32.795Z,49.25
2019-04-30T01:39:39.252Z,50.58
2019-04-30T01:42:48.655Z,49.47
2019-04-30T01:45:53.782Z,47.87
2019-04-30T01:49:00.169Z,47.76
2019-04-30T01:52:06.594Z,48.98
2019-04-30T01:55:13.129Z,48.89
2019-04-30T01:58:44.565Z,47.48
2019-04-30T02:01:51.232Z,48.07
2019-04-30T02:04:59.141Z,48.49
2019-04-30T02:08:05.682Z,48.75
2019-04-30T02:11:12.047Z,49.73
2019-04-30T02:14:18.953Z,49.84
2019-04-30T02:17:25.347Z,49.05
2019-04-30T02:20:31.812Z,48.89
2019-04-30T02:23:39.224Z,48.21
2019-04-30T02:26:45.819Z,48.65
2019-04-30T02:29:52.192Z,49.34
2019-04-30T02:33:00.504Z,48.99
2019-04-30T02:36:25.652Z,49.25
2019-04-30T02:39:32.058Z,47.75
2019-04-30T02:42:39.868Z,49.19
2019-04-30T02:45:49.610Z,42.20
2019-04-30T02:48:55.794Z,36.54
2019-04-30T02:52:04.008Z,36.45
2019-04-30T02:55:14.474Z,36.17
2019-04-30T02:58:21.956Z,40.50
2019-04-30T03:01:30.543Z,44.17
2019-04-30T03:04:39.374Z,45.86
2019-04-30T03:07:44.641Z,46.25
2019-04-30T03:10:52.918Z,47.57
2019-04-30T03:13:59.595Z,47.29
2019-04-30T03:17:17.007Z,46.36
2019-04-30T03:20:42.144Z,44.95
2019-04-30T03:23:50.262Z,46.40
2019-04-30T03:26:59.228Z,46.06
2019-04-30T03:30:06.011Z,46.71
2019-04-30T03:33:13.555Z,47.04
2019-04-30T03:36:21.722Z,47.68
2019-04-30T03:39:29.742Z,47.58
2019-04-30T03:42:36.471Z,47.82
2019-04-30T03:45:42.817Z,48.27
2019-04-30T03:48:50.418Z,48.08
2019-04-30T03:51:59.596Z,48.29
2019-04-30T03:55:05.079Z,48.54
2019-04-30T03:58:11.491Z,46.09
2019-04-30T04:01:39.721Z,46.42
2019-04-30T04:05:01.081Z,45.72
2019-04-30T04:08:29.186Z,47.81
2019-04-30T04:11:39.694Z,49.24
2019-04-30T04:14:46.101Z,51.81
2019-04-30T04:17:52.588Z,51.19
2019-04-30T04:21:08.746Z,46.52
2019-04-30T04:24:10.643Z,45.11
2019-04-30T04:27:16.339Z,46.25
2019-04-30T04:30:22.748Z,46.56
2019-04-30T04:33:29.834Z,46.48
2019-04-30T04:36:36.254Z,45.43
2019-04-30T04:39:42.649Z,46.43
2019-04-30T04:42:49.497Z,45.36
2019-04-30T04:45:55.899Z,44.44
2019-04-30T04:49:02.652Z,42.13
2019-04-30T04:52:10.281Z,42.13
2019-04-30T04:55:16.910Z,43.75
2019-04-30T04:58:23.265Z,38.65
2019-04-30T05:01:29.746Z,40.55
2019-04-30T05:04:36.183Z,38.04
2019-04-30T05:07:42.570Z,40.44
2019-04-30T05:10:49.520Z,39.43
2019-04-30T05:13:56.073Z,37.49
2019-04-30T05:17:02.519Z,33.99
2019-04-30T05:20:10.008Z,38.00
2019-04-30T05:23:16.636Z,38.38
2019-04-30T05:26:22.991Z,34.42
2019-04-30T05:29:29.425Z,33.55
2019-04-30T05:32:35.909Z,33.90
2019-04-30T05:35:42.930Z,34.08
2019-04-30T05:38:49.292Z,33.97
2019-04-30T05:41:55.579Z,33.80
2019-04-30T05:45:03.772Z,34.13
2019-04-30T05:48:10.242Z,34.75
2019-04-30T05:51:19.287Z,34.04
2019-04-30T05:54:24.765Z,35.18
2019-04-30T05:57:31.355Z,34.55
2019-04-30T06:00:39.757Z,34.23
2019-04-30T06:03:45.691Z,33.76
2019-04-30T06:06:52.154Z,33.98
2019-04-30T06:10:11.169Z,32.68
2019-04-30T06:13:28.665Z,32.06
2019-04-30T06:16:35.353Z,31.69
2019-04-30T06:19:41.734Z,31.28
2019-04-30T06:22:49.683Z,29.31
2019-04-30T06:26:06.896Z,27.05
2019-04-30T06:29:05.305Z,25.86
2019-04-30T06:32:11.769Z,26.50
2019-04-30T06:35:19.362Z,27.17
2019-04-30T06:38:26.412Z,27.98
2019-04-30T06:41:32.774Z,28.19
2019-04-30T06:44:41.872Z,27.93
2019-04-30T06:47:48.893Z,28.55
2019-04-30T06:50:56.672Z,28.30
2019-04-30T06:54:03.017Z,27.95
2019-04-30T06:57:12.027Z,28.12
2019-04-30T07:00:19.572Z,28.16
2019-04-30T07:03:25.936Z,29.19
2019-04-30T07:06:36.990Z,27.66
2019-04-30T07:09:55.787Z,27.72
2019-04-30T07:13:03.701Z,27.65
2019-04-30T07:16:10.986Z,27.38
2019-04-30T07:19:29.965Z,26.84
2019-04-30T07:22:37.698Z,27.46
2019-04-30T07:25:35.182Z,27.34
2019-04-30T07:28:47.872Z,28.90
2019-04-30T07:31:51.652Z,27.64
2019-04-30T07:34:59.421Z,27.86
2019-04-30T07:38:06.116Z,27.97
2019-04-30T07:41:12.695Z,26.89
2019-04-30T07:44:31.000Z,26.58
2019-04-30T07:47:29.614Z,26.82
2019-04-30T07:50:35.756Z,26.44
2019-04-30T07:53:42.627Z,26.79
2019-04-30T07:56:50.724Z,26.11
2019-04-30T07:59:57.223Z,26.64
2019-04-30T08:03:11.749Z,26.96
2019-04-30T08:06:22.005Z,26.44
2019-04-30T08:09:35.661Z,27.20
2019-04-30T08:12:37.569Z,27.33
2019-04-30T08:15:44.257Z,27.96
2019-04-30T08:18:50.726Z,28.23
2019-04-30T08:21:58.592Z,28.23
2019-04-30T08:25:05.141Z,28.40
2019-04-30T08:28:11.518Z,27.16
2019-04-30T08:31:19.614Z,27.87
2019-04-30T08:34:25.938Z,28.02
2019-04-30T08:37:32.337Z,28.60
2019-04-30T08:40:43.116Z,28.91
2019-04-30T08:43:49.662Z,28.51
2019-04-30T08:46:58.864Z,28.82
2019-04-30T08:50:05.514Z,27.65
2019-04-30T08:53:12.165Z,27.87
2019-04-30T08:56:21.682Z,28.18
2019-04-30T08:59:26.444Z,27.34
2019-04-30T09:02:32.824Z,27.34
2019-04-30T09:06:05.446Z,27.80
2019-04-30T09:09:22.715Z,27.88
2019-04-30T09:12:29.986Z,27.88
2019-04-30T09:15:37.500Z,28.30
2019-04-30T09:18:44.020Z,28.73
2019-04-30T09:21:50.567Z,29.43
2019-04-30T09:24:56.934Z,28.56
2019-04-30T09:28:04.520Z,29.06
2019-04-30T09:31:10.935Z,29.07
2019-04-30T09:34:20.351Z,28.70
2019-04-30T09:37:26.718Z,28.41
2019-04-30T09:40:33.177Z,28.13
2019-04-30T09:43:40.518Z,28.48
2019-04-30T09:46:48.899Z,28.76
2019-04-30T09:49:55.371Z,28.77
2019-04-30T09:53:02.225Z,28.41
2019-04-30T09:56:09.655Z,27.69
2019-04-30T09:59:16.155Z,29.15
2019-04-30T10:02:22.620Z,29.57
2019-04-30T10:05:29.392Z,29.57
2019-04-30T10:08:47.479Z,29.63
2019-04-30T10:12:09.699Z,29.47
2019-04-30T10:15:29.016Z,29.32
2019-04-30T10:18:35.293Z,29.45
2019-04-30T10:21:41.837Z,29.85
2019-04-30T10:24:49.446Z,28.97
2019-04-30T10:27:56.069Z,28.34
2019-04-30T10:31:02.556Z,27.88
2019-04-30T10:34:09.655Z,26.80
2019-04-30T10:37:16.100Z,26.50
2019-04-30T10:40:22.489Z,26.23
2019-04-30T10:43:31.842Z,26.39
2019-04-30T10:46:37.316Z,27.33
2019-04-30T10:49:44.245Z,26.10
2019-04-30T10:52:50.600Z,25.21
2019-04-30T10:55:57.006Z,24.41
2019-04-30T10:59:03.624Z,24.59
2019-04-30T11:02:10.123Z,24.41
2019-04-30T11:05:16.549Z,22.41
2019-04-30T11:08:23.168Z,22.90
2019-04-30T11:11:30.598Z,22.05
2019-04-30T11:14:37.353Z,22.86
2019-04-30T11:17:43.902Z,23.67
2019-04-30T11:20:52.021Z,25.31
2019-04-30T11:23:59.519Z,25.24
2019-04-30T11:27:06.546Z,25.32
2019-04-30T11:30:21.395Z,25.67
2019-04-30T11:33:21.671Z,25.84
2019-04-30T11:36:29.218Z,26.22
2019-04-30T11:39:36.028Z,27.17
2019-04-30T11:42:42.509Z,28.90
2019-04-30T11:46:45.016Z,31.34
2019-04-30T11:49:52.415Z,36.22
2019-04-30T11:53:13.984Z,39.42
2019-04-30T11:56:07.060Z,49.84
2019-04-30T11:59:13.790Z,49.84
2019-04-30T12:02:34.646Z,55.03
2019-04-30T12:05:41.131Z,54.57
2019-04-30T12:09:09.406Z,56.05
2019-04-30T12:12:18.937Z,57.96
2019-04-30T12:15:25.399Z,58.25
2019-04-30T12:18:31.874Z,59.44
2019-04-30T12:21:38.319Z,62.70
2019-04-30T12:24:44.938Z,62.50
2019-04-30T12:27:51.291Z,64.14
2019-04-30T12:30:58.902Z,67.20
2019-04-30T12:34:05.510Z,64.68
2019-04-30T12:37:12.128Z,64.91
2019-04-30T12:40:26.660Z,63.60
2019-04-30T12:43:26.620Z,61.45
2019-04-30T12:46:33.166Z,61.06
2019-04-30T12:50:01.473Z,61.96
2019-04-30T12:53:11.917Z,60.87
2019-04-30T12:56:41.346Z,63.02
2019-04-30T12:59:47.810Z,62.79
2019-04-30T13:02:54.231Z,62.59
2019-04-30T13:06:01.861Z,64.04
2019-04-30T13:09:10.832Z,64.33
2019-04-30T13:12:18.157Z,63.14
2019-04-30T13:15:24.862Z,65.91
2019-04-30T13:18:31.215Z,64.83
2019-04-30T13:21:39.445Z,62.77
2019-04-30T13:24:46.104Z,62.50
2019-04-30T13:27:55.409Z,63.83
2019-04-30T13:31:01.832Z,64.92
2019-04-30T13:34:39.669Z,63.17
2019-04-30T13:37:53.236Z,66.00
2019-04-30T13:41:30.804Z,64.29
2019-04-30T13:44:39.400Z,64.17
2019-04-30T13:47:45.880Z,64.92
2019-04-30T13:50:52.288Z,66.27
2019-04-30T13:53:59.298Z,64.35
2019-04-30T13:57:05.611Z,65.49
2019-04-30T14:00:13.781Z,66.38
2019-04-30T14:03:29.137Z,67.23
2019-04-30T14:06:38.901Z,65.63
2019-04-30T14:09:45.257Z,65.66
2019-04-30T14:12:55.407Z,66.95
2019-04-30T14:16:01.800Z,65.29
2019-04-30T14:19:08.551Z,65.72
2019-04-30T14:22:14.968Z,64.84
2019-04-30T14:25:21.333Z,66.09
2019-04-30T14:28:29.191Z,65.14
2019-04-30T14:31:35.710Z,63.61
2019-04-30T14:34:42.076Z,63.36
2019-04-30T14:37:49.636Z,63.25
2019-04-30T14:40:56.735Z,62.54
2019-04-30T14:44:10.266Z,62.50
2019-04-30T14:47:26.776Z,62.68
2019-04-30T14:50:33.892Z,61.86
2019-04-30T14:53:59.190Z,59.05
2019-04-30T14:57:17.098Z,58.96
2019-04-30T15:00:38.793Z,58.75
2019-04-30T15:03:45.406Z,57.54
2019-04-30T15:06:51.831Z,58.09
2019-04-30T15:09:58.209Z,57.55
2019-04-30T15:13:06.488Z,58.76
2019-04-30T15:16:12.922Z,56.72
2019-04-30T15:19:19.442Z,58.47
2019-04-30T15:22:25.918Z,56.96
2019-04-30T15:25:34.225Z,55.85
2019-04-30T15:28:41.476Z,55.03
2019-04-30T15:31:49.076Z,54.00
2019-04-30T15:34:58.940Z,53.16
2019-04-30T15:38:05.047Z,52.78
2019-04-30T15:41:12.772Z,53.59
2019-04-30T15:44:19.218Z,51.89
2019-04-30T15:47:25.762Z,52.38
2019-04-30T15:50:31.998Z,52.38
2019-04-30T15:53:39.455Z,52.86
2019-04-30T15:56:45.871Z,53.16
2019-04-30T15:59:52.588Z,53.35
2019-04-30T16:03:05.566Z,52.89
2019-04-30T16:06:12.020Z,51.79
2019-04-30T16:09:25.629Z,52.09
2019-04-30T16:12:41.885Z,52.52
2019-04-30T16:15:49.180Z,51.56
2019-04-30T16:18:55.948Z,50.77
2019-04-30T16:22:02.307Z,50.77
2019-04-30T16:25:08.713Z,51.80
2019-04-30T16:28:15.053Z,50.54
2019-04-30T16:31:21.572Z,50.26
2019-04-30T16:34:30.149Z,50.72
2019-04-30T16:37:35.980Z,50.90
2019-04-30T16:40:42.357Z,49.74
2019-04-30T16:43:49.325Z,50.03
2019-04-30T16:46:55.703Z,49.93
2019-04-30T16:50:02.246Z,49.17
2019-04-30T16:53:08.630Z,48.45
2019-04-30T16:56:15.032Z,48.57
2019-04-30T16:59:26.585Z,48.94
2019-04-30T17:02:33.436Z,48.33
2019-04-30T17:05:43.989Z,49.11
2019-04-30T17:09:11.459Z,48.48
2019-04-30T17:12:26.076Z,48.17
2019-04-30T17:15:32.896Z,47.45
2019-04-30T17:18:41.747Z,47.26
2019-04-30T17:21:47.513Z,47.59
2019-04-30T17:24:53.857Z,47.54
2019-04-30T17:28:01.492Z,47.53
2019-04-30T17:31:09.735Z,47.81
2019-04-30T17:34:16.602Z,46.94
2019-04-30T17:37:22.966Z,48.48
2019-04-30T17:40:29.426Z,47.04
2019-04-30T17:43:35.908Z,46.48
2019-04-30T17:46:42.527Z,46.08
2019-04-30T17:49:50.893Z,45.91
2019-04-30T17:53:00.463Z,45.47
2019-04-30T17:56:05.591Z,44.97
2019-04-30T17:59:12.200Z,45.35
2019-04-30T18:02:20.228Z,44.66
2019-04-30T18:05:27.006Z,44.66
2019-04-30T18:08:33.365Z,44.96
2019-04-30T18:11:40.224Z,45.38
2019-04-30T18:14:46.589Z,45.45
2019-04-30T18:18:00.465Z,46.26
2019-04-30T18:21:29.496Z,45.70
2019-04-30T18:24:42.222Z,45.76
2019-04-30T18:27:53.788Z,46.06
2019-04-30T18:31:00.199Z,46.36
2019-04-30T18:34:06.772Z,46.95
2019-04-30T18:37:13.305Z,46.97
2019-04-30T18:40:19.755Z,47.00
2019-04-30T18:43:26.164Z,47.77
2019-04-30T18:46:32.802Z,47.99
2019-04-30T18:49:42.042Z,47.25
2019-04-30T18:52:50.719Z,48.45
2019-04-30T18:55:59.157Z,48.39
2019-04-30T18:59:08.680Z,47.83
2019-04-30T19:02:14.890Z,51.17
2019-04-30T19:05:26.557Z,48.54
2019-04-30T19:08:39.467Z,48.99
2019-04-30T19:11:52.085Z,47.91
2019-04-30T19:15:11.972Z,48.41
2019-04-30T19:18:30.425Z,51.18
2019-04-30T19:21:40.173Z,49.92
2019-04-30T19:24:55.688Z,48.70
2019-04-30T19:27:54.364Z,49.10
2019-04-30T19:31:01.071Z,50.57
2019-04-30T19:34:09.664Z,48.80
2019-04-30T19:37:15.595Z,48.73
2019-04-30T19:40:21.919Z,50.28
2019-04-30T19:43:28.635Z,48.57
2019-04-30T19:46:35.240Z,48.84
2019-04-30T19:49:41.577Z,47.39
2019-04-30T19:52:48.134Z,47.97
2019-04-30T19:55:54.500Z,45.77
2019-04-30T19:59:05.166Z,45.50
2019-04-30T20:02:10.707Z,47.34
2019-04-30T20:05:19.251Z,44.89
2019-04-30T20:08:25.235Z,45.43
2019-04-30T20:11:33.083Z,44.64
2019-04-30T20:14:39.381Z,44.18
2019-04-30T20:17:45.943Z,44.16
2019-04-30T20:20:54.174Z,44.99
2019-04-30T20:24:00.517Z,44.46
2019-04-30T20:27:09.553Z,44.87
2019-04-30T20:30:15.948Z,44.39
2019-04-30T20:33:22.366Z,44.19
2019-04-30T20:36:28.898Z,44.54
2019-04-30T20:39:42.598Z,45.30
2019-04-30T20:42:49.023Z,46.36
2019-04-30T20:45:55.455Z,44.76
2019-04-30T20:49:02.808Z,45.57
2019-04-30T20:52:09.191Z,44.99
2019-04-30T20:55:15.585Z,45.02
2019-04-30T20:58:22.021Z,47.76
2019-04-30T21:01:29.384Z,46.82
2019-04-30T21:04:36.016Z,46.03
2019-04-30T21:07:42.426Z,45.50
2019-04-30T21:10:49.435Z,46.05
2019-04-30T21:13:56.298Z,47.17
2019-04-30T21:17:02.616Z,46.82
2019-04-30T21:20:09.766Z,46.82
2019-04-30T21:23:19.289Z,47.31
2019-04-30T21:26:25.495Z,47.24
2019-04-30T21:29:32.031Z,47.31
2019-04-30T21:33:00.330Z,47.38
2019-04-30T21:36:25.731Z,46.63
2019-04-30T21:39:32.195Z,47.33
2019-04-30T21:42:38.536Z,47.14
2019-04-30T21:45:44.886Z,46.79
2019-04-30T21:48:51.232Z,46.49
2019-04-30T21:51:57.660Z,46.49
2019-04-30T21:55:04.335Z,46.52
2019-04-30T21:58:10.873Z,46.68
2019-04-30T22:01:24.696Z,46.68
2019-04-30T22:04:32.870Z,47.68
2019-04-30T22:07:39.206Z,48.93
2019-04-30T22:10:45.625Z,49.83
2019-04-30T22:13:51.885Z,49.01
2019-04-30T22:16:59.469Z,48.67
2019-04-30T22:20:07.834Z,48.33
2019-04-30T22:23:14.322Z,49.07
2019-04-30T22:26:20.750Z,48.42
2019-04-30T22:29:38.463Z,48.33
2019-04-30T22:32:35.208Z,49.79
2019-04-30T22:36:08.720Z,47.06
2019-04-30T22:39:39.550Z,46.87
2019-04-30T22:42:46.016Z,47.30
2019-04-30T22:45:59.718Z,47.03
2019-04-30T22:49:06.134Z,47.16
2019-04-30T22:52:12.395Z,46.52
2019-04-30T22:55:18.867Z,47.71
2019-04-30T22:58:25.227Z,46.97
2019-04-30T23:01:44.191Z,47.06
2019-04-30T23:04:50.583Z,49.03
2019-04-30T23:07:57.043Z,49.25
2019-04-30T23:11:03.461Z,48.89
2019-04-30T23:14:09.942Z,50.23
2019-04-30T23:17:16.914Z,50.90
2019-04-30T23:20:23.378Z,50.52
2019-04-30T23:23:29.955Z,51.28
2019-04-30T23:26:36.509Z,51.26
2019-04-30T23:29:42.879Z,53.03
2019-04-30T23:32:49.297Z,53.04
2019-04-30T23:35:55.712Z,53.66
2019-04-30T23:39:02.799Z,53.32
2019-04-30T23:42:09.915Z,52.94
2019-04-30T23:45:16.326Z,54.09
2019-04-30T23:48:22.764Z,54.86
2019-04-30T23:51:29.163Z,55.30
2019-04-30T23:54:35.515Z,55.44
2019-04-30T23:57:41.855Z,57.24
